Time;durP1;ratioP1;P1;durP2;ratioP2;P2;SDS_P1;SDS_P2;PMS_P1;PMS_P2;Temp;Humidity;BMP_temperature;BMP_pressure;BME280_temperature;BME280_humidity;BME280_pressure;Samples;Min_cycle;Max_cycle;Signal;HPM_P1;HPM_P2
2022/03/04 00:00:46;;;;;;;16.40;14.15;;;;;;;3.73;72.45;100440.38;5005514;28;20054;-76
2022/03/04 00:03:12;;;;;;;15.95;13.38;;;;;;;3.56;73.28;100439.91;5010873;28;20026;-76
2022/03/04 00:05:39;;;;;;;18.10;13.55;;;;;;;3.61;73.87;100437.44;4999701;28;20041;-75
2022/03/04 00:08:05;;;;;;;19.27;15.15;;;;;;;3.94;73.70;100436.59;5003710;28;20120;-75
2022/03/04 00:10:31;;;;;;;16.02;13.15;;;;;;;3.61;74.23;100433.97;5012563;28;20034;-77
2022/03/04 00:12:57;;;;;;;18.60;14.20;;;;;;;3.93;73.67;100429.63;5008430;28;20038;-76
2022/03/04 00:15:23;;;;;;;18.75;14.48;;;;;;;3.11;75.67;100439.41;5014775;28;20107;-76
2022/03/04 00:17:48;;;;;;;20.77;15.18;;;;;;;2.78;77.07;100414.19;5010914;28;20030;-76
2022/03/04 00:21:08;;;;;;;28.48;16.33;;;;;;;3.07;77.10;100437.56;5010992;28;20085;-75
2022/03/04 00:26:56;;;;;;;19.13;14.82;;;;;;;4.09;74.50;100430.94;5009139;28;20127;-76
2022/03/04 00:29:21;;;;;;;17.55;14.05;;;;;;;4.00;74.66;100431.56;5011019;28;20073;-76
2022/03/04 00:31:46;;;;;;;21.65;15.50;;;;;;;4.15;74.91;100431.13;5012591;28;20033;-76
2022/03/04 00:34:12;;;;;;;20.75;17.42;;;;;;;4.12;74.44;100442.31;5006628;28;20045;-76
2022/03/04 00:36:39;;;;;;;18.85;15.27;;;;;;;3.78;75.04;100430.13;5004846;28;20477;-77
2022/03/04 00:39:07;;;;;;;19.60;15.35;;;;;;;3.85;74.74;100438.94;5010340;28;20136;-76
2022/03/04 00:42:21;;;;;;;19.33;13.98;;;;;;;3.77;74.83;100441.34;5011957;28;20485;-76
2022/03/04 00:44:46;;;;;;;19.80;15.02;;;;;;;3.74;74.59;100428.25;5010986;28;20056;-76
2022/03/04 00:47:12;;;;;;;17.20;13.93;;;;;;;3.81;74.44;100425.00;5009996;28;20474;-76
2022/03/04 00:49:37;;;;;;;16.65;14.93;;;;;;;3.81;74.45;100432.78;5010117;28;20482;-75
2022/03/04 00:52:03;;;;;;;19.83;15.77;;;;;;;3.75;74.48;100430.03;5011640;28;20088;-76
2022/03/04 00:54:29;;;;;;;19.75;14.02;;;;;;;3.53;75.08;100432.00;5009519;28;20508;-76
2022/03/04 00:56:54;;;;;;;18.92;14.90;;;;;;;3.64;75.02;100428.84;5010700;28;20398;-76
2022/03/04 00:59:20;;;;;;;20.00;14.60;;;;;;;3.80;74.31;100431.03;5010437;28;20073;-76
2022/03/04 01:01:45;;;;;;;18.67;15.43;;;;;;;3.91;74.19;100424.44;5010228;28;20081;-76
2022/03/04 01:04:11;;;;;;;21.67;15.77;;;;;;;3.65;74.69;100413.31;5010933;28;20045;-76
2022/03/04 01:10:30;;;;;;;17.73;14.45;;;;;;;3.79;74.20;100422.38;4997325;28;20136;-76
2022/03/04 01:13:39;;;;;;;18.05;15.98;;;;;;;3.95;73.82;100412.41;5008977;28;20537;-75
2022/03/04 01:16:04;;;;;;;21.27;15.60;;;;;;;3.28;75.05;100420.06;5000106;28;20046;-75
2022/03/04 01:18:30;;;;;;;20.20;15.13;;;;;;;3.55;75.38;100406.13;5008513;28;20108;-75
2022/03/04 01:20:55;;;;;;;18.67;16.10;;;;;;;3.62;75.03;100409.75;5009660;28;20072;-74
2022/03/04 01:23:21;;;;;;;19.10;15.27;;;;;;;3.84;74.54;100409.53;5009859;28;20041;-74
2022/03/04 01:25:47;;;;;;;25.23;16.40;;;;;;;3.87;74.57;100390.56;5011065;28;20482;-75
2022/03/04 01:28:12;;;;;;;20.10;15.45;;;;;;;3.94;74.32;100397.66;5010055;28;20053;-76
2022/03/04 01:30:38;;;;;;;20.75;15.23;;;;;;;3.24;75.59;100405.25;5003295;28;20088;-75
2022/03/04 01:33:03;;;;;;;22.10;15.30;;;;;;;3.51;75.41;100397.38;5012500;28;20052;-76
2022/03/04 01:35:29;;;;;;;22.77;15.30;;;;;;;3.89;74.41;100397.56;5009973;28;20046;-76
2022/03/04 01:45:11;;;;;;;20.92;15.95;;;;;;;4.04;74.57;100420.44;5001974;28;20041;-77
2022/03/04 01:48:16;;;;;;;20.42;15.48;;;;;;;4.01;74.85;100421.22;5004073;28;20049;-76
2022/03/04 01:50:41;;;;;;;20.00;15.02;;;;;;;4.17;74.51;100421.66;5009698;28;20050;-77
2022/03/04 01:53:07;;;;;;;19.25;14.07;;;;;;;3.16;76.19;100417.97;5007074;28;20512;-76
2022/03/04 01:55:32;;;;;;;18.55;14.43;;;;;;;3.63;75.99;100408.91;5011385;28;20493;-76
2022/03/04 02:01:53;;;;;;;17.98;14.80;;;;;;;3.85;75.20;100421.66;5008291;28;20044;-74
2022/03/04 02:08:12;;;;;;;20.65;15.82;;;;;;;3.80;75.16;100421.53;5010323;28;20065;-75
2022/03/04 02:10:37;;;;;;;16.63;13.88;;;;;;;3.88;75.27;100411.34;5006551;28;20119;-75
2022/03/04 02:13:04;;;;;;;17.23;14.93;;;;;;;4.06;75.00;100412.69;5005603;28;20030;-74
2022/03/04 02:15:29;;;;;;;18.83;14.63;;;;;;;3.79;74.38;100406.81;5017101;28;20038;-75
2022/03/04 02:21:10;;;;;;;20.80;15.17;;;;;;;3.49;77.02;100432.78;5011577;28;20085;-76
2022/03/04 02:23:35;;;;;;;17.30;13.10;;;;;;;3.72;75.90;100427.34;5012497;28;20041;-76
2022/03/04 02:26:12;;;;;;;17.90;14.57;;;;;;;3.87;75.28;100430.38;4990195;28;20047;-76
2022/03/04 02:28:38;;;;;;;19.33;14.90;;;;;;;4.07;75.25;100438.69;4998702;28;20606;-77
2022/03/04 02:31:03;;;;;;;20.27;16.90;;;;;;;3.91;74.76;100432.22;5012772;28;20045;-76
2022/03/04 02:36:50;;;;;;;19.85;15.52;;;;;;;3.67;75.78;100439.31;5011072;28;20096;-76
2022/03/04 02:39:16;;;;;;;17.33;14.75;;;;;;;3.65;75.63;100441.84;5014284;28;20033;-76
2022/03/04 02:41:41;;;;;;;15.48;13.48;;;;;;;4.12;75.11;100441.41;5015603;28;20100;-76
2022/03/04 02:44:10;;;;;;;18.98;14.18;;;;;;;4.02;75.56;100443.75;5000610;28;20038;-75
2022/03/04 02:46:36;;;;;;;19.40;14.88;;;;;;;3.83;75.57;100436.31;5014306;28;20069;-76
2022/03/04 02:49:03;;;;;;;17.67;14.27;;;;;;;3.94;75.86;100445.28;5014228;28;20053;-77
2022/03/04 02:51:29;;;;;;;18.27;15.15;;;;;;;3.62;75.97;100446.97;5010317;28;20045;-77
2022/03/04 02:53:54;;;;;;;20.10;15.95;;;;;;;3.51;76.70;100431.09;5013031;28;20359;-76
2022/03/04 02:56:20;;;;;;;19.75;14.23;;;;;;;3.78;76.16;100449.16;5011789;28;20145;-77
2022/03/04 02:58:45;;;;;;;17.92;14.68;;;;;;;2.97;78.80;100446.75;5012788;28;20061;-76
2022/03/04 03:01:11;;;;;;;21.17;15.43;;;;;;;3.46;78.43;100448.22;5011611;28;20034;-77
2022/03/04 03:03:37;;;;;;;19.42;15.65;;;;;;;3.27;78.23;100444.22;5015224;28;20053;-77
2022/03/04 03:06:03;;;;;;;20.90;15.93;;;;;;;2.88;79.48;100441.28;5012492;28;20029;-77
2022/03/04 03:08:29;;;;;;;20.58;15.27;;;;;;;3.59;78.27;100445.16;5012315;28;20053;-76
2022/03/04 03:10:55;;;;;;;20.88;16.17;;;;;;;3.61;77.03;100440.03;5011218;28;20121;-76
2022/03/04 03:13:21;;;;;;;21.92;16.80;;;;;;;3.80;76.67;100438.81;5010487;28;20117;-75
2022/03/04 03:15:47;;;;;;;26.35;16.77;;;;;;;3.72;76.88;100433.44;5012021;28;20136;-76
2022/03/04 03:18:13;;;;;;;19.02;15.25;;;;;;;3.55;77.25;100432.94;5013779;28;20044;-75
2022/03/04 03:20:38;;;;;;;20.30;15.85;;;;;;;3.78;77.18;100437.91;5012587;28;20033;-74
2022/03/04 03:23:04;;;;;;;16.00;14.30;;;;;;;3.64;76.90;100429.72;4993657;28;20045;-75
2022/03/04 03:25:29;;;;;;;17.88;13.98;;;;;;;3.82;76.62;100431.97;5007296;28;20038;-76
2022/03/04 03:27:56;;;;;;;19.70;15.57;;;;;;;3.45;77.21;100430.91;5008049;28;20564;-74
2022/03/04 03:33:37;;;;;;;20.40;14.85;;;;;;;3.45;77.69;100428.31;5000877;28;20049;-75
2022/03/04 03:36:04;;;;;;;19.38;16.83;;;;;;;3.78;76.65;100430.97;4999007;28;20026;-75
2022/03/04 03:38:30;;;;;;;20.73;15.63;;;;;;;3.45;78.11;100422.25;5009864;28;20056;-74
2022/03/04 03:40:55;;;;;;;21.15;16.33;;;;;;;3.70;77.33;100431.59;4994452;28;20058;-75
2022/03/04 03:43:21;;;;;;;20.40;16.67;;;;;;;3.68;77.11;100417.72;5011175;28;20073;-77
2022/03/04 03:45:46;;;;;;;16.92;14.82;;;;;;;3.34;77.66;100429.72;5011961;28;20058;-78
2022/03/04 03:48:13;;;;;;;19.23;16.70;;;;;;;3.43;77.48;100419.63;5010310;28;20532;-76
2022/03/04 03:50:39;;;;;;;20.83;16.20;;;;;;;3.61;77.27;100418.41;5013083;28;20056;-77
2022/03/04 03:53:05;;;;;;;19.70;14.32;;;;;;;3.66;77.78;100429.78;5002698;28;20147;-77
2022/03/04 03:55:30;;;;;;;19.20;16.05;;;;;;;3.79;77.31;100427.56;5009326;28;20034;-75
2022/03/04 03:57:56;;;;;;;19.08;15.48;;;;;;;3.49;77.97;100421.50;5012484;28;20033;-76
2022/03/04 04:00:21;;;;;;;20.70;15.95;;;;;;;3.10;78.59;100428.16;5003813;28;20030;-75
2022/03/04 04:02:47;;;;;;;20.40;15.45;;;;;;;3.52;77.98;100412.09;5008990;28;20034;-77
2022/03/04 04:05:12;;;;;;;19.77;15.77;;;;;;;3.61;77.74;100418.41;5014726;28;20056;-77
2022/03/04 04:07:38;;;;;;;20.02;15.55;;;;;;;3.59;77.47;100427.00;5009441;28;20057;-76
2022/03/04 04:16:33;;;;;;;18.83;14.63;;;;;;;3.66;76.46;100430.66;4994903;28;20125;-76
2022/03/04 04:18:59;;;;;;;19.20;15.20;;;;;;;3.16;77.88;100424.84;5011354;28;20061;-76
2022/03/04 04:21:26;;;;;;;22.27;16.73;;;;;;;3.09;78.58;100434.19;5012676;28;20053;-77
2022/03/04 04:23:55;;;;;;;17.40;14.25;;;;;;;3.25;77.74;100432.03;5011438;28;20049;-75
2022/03/04 04:26:22;;;;;;;20.48;15.43;;;;;;;3.04;78.41;100430.53;5005395;28;20042;-76
2022/03/04 04:28:48;;;;;;;18.30;16.23;;;;;;;2.98;78.34;100424.31;4999968;28;20049;-76
2022/03/04 04:31:13;;;;;;;23.88;16.23;;;;;;;2.81;78.43;100436.72;4994209;28;20042;-75
2022/03/04 04:33:39;;;;;;;20.73;15.18;;;;;;;2.84;78.92;100431.66;5006504;28;20416;-77
2022/03/04 04:39:25;;;;;;;21.83;16.13;;;;;;;3.06;78.73;100435.78;4994210;28;20057;-77
2022/03/04 04:41:51;;;;;;;20.20;15.63;;;;;;;2.53;79.18;100439.34;5000980;28;20018;-75
2022/03/04 04:44:54;;;;;;;20.20;15.40;;;;;;;2.88;79.03;100439.59;5012059;28;20045;-77
2022/03/04 04:50:42;;;;;;;16.58;10.38;;;;;;;2.82;78.64;100428.16;5011199;28;20045;-76
2022/03/04 04:53:07;;;;;;;18.60;15.60;;;;;;;2.61;79.16;100438.69;5004190;28;20348;-75
2022/03/04 04:55:33;;;;;;;19.35;12.13;;;;;;;2.75;79.33;100437.44;5005857;28;20462;-75
2022/03/04 04:58:35;;;;;;;20.38;15.75;;;;;;;3.09;77.69;100441.06;5009525;28;20104;-75
2022/03/04 05:04:10;;;;;;;21.52;15.98;;;;;;;2.64;78.77;100436.19;5000700;28;20046;-76
2022/03/04 05:06:36;;;;;;;16.23;12.02;;;;;;;2.76;79.28;100439.19;5009491;28;20046;-75
2022/03/04 05:09:02;;;;;;;19.13;10.98;;;;;;;3.03;78.39;100446.94;5004547;28;20417;-76
2022/03/04 05:11:28;;;;;;;25.23;17.20;;;;;;;2.25;79.74;100459.97;5007419;28;20069;-76
2022/03/04 05:13:53;;;;;;;20.85;16.02;;;;;;;2.12;80.88;100463.81;5009336;28;20045;-77
2022/03/04 05:16:19;;;;;;;22.48;17.10;;;;;;;2.68;79.93;100463.97;5010914;28;20053;-76
2022/03/04 05:22:02;;;;;;;25.95;17.77;;;;;;;2.51;78.95;100451.34;5007856;28;20096;-76
2022/03/04 05:24:27;;;;;;;23.38;17.17;;;;;;;2.22;79.83;100454.66;5004924;28;20085;-75
2022/03/04 05:26:52;;;;;;;14.55;11.32;;;;;;;2.63;80.02;100460.34;4999368;28;20038;-75
2022/03/04 05:29:18;;;;;;;20.48;11.77;;;;;;;2.86;78.88;100448.16;5040196;28;20037;-74
2022/03/04 05:32:21;;;;;;;25.90;18.55;;;;;;;3.21;77.94;100474.25;5009866;28;20052;-75
2022/03/04 05:34:46;;;;;;;23.48;19.50;;;;;;;3.01;78.07;100458.09;5000228;28;20576;-75
2022/03/04 05:37:12;;;;;;;21.48;17.85;;;;;;;2.81;78.71;100460.94;5009612;28;20045;-75
2022/03/04 05:39:37;;;;;;;26.02;21.30;;;;;;;3.06;77.93;100482.44;5007988;28;20457;-75
2022/03/04 05:42:03;;;;;;;20.00;12.23;;;;;;;3.43;76.54;100476.69;5002517;28;20102;-76
2022/03/04 05:44:28;;;;;;;24.00;19.23;;;;;;;3.43;76.67;100479.28;5007958;28;20068;-76
2022/03/04 05:46:54;;;;;;;23.58;18.30;;;;;;;3.46;76.14;100483.66;5009456;28;20042;-76
2022/03/04 05:49:19;;;;;;;22.98;15.07;;;;;;;3.45;76.07;100477.59;5011074;28;20049;-75
2022/03/04 05:51:45;;;;;;;20.13;17.70;;;;;;;3.03;77.37;100488.41;5011288;28;20421;-75
2022/03/04 05:54:10;;;;;;;25.83;19.48;;;;;;;3.11;76.85;100505.13;5014037;28;20038;-76
2022/03/04 05:56:35;;;;;;;23.77;18.98;;;;;;;2.39;79.05;100504.41;5011267;28;20034;-75
2022/03/04 05:59:02;;;;;;;20.08;13.30;;;;;;;2.84;78.15;100509.41;5014363;28;20030;-77
2022/03/04 06:01:27;;;;;;;20.42;17.30;;;;;;;2.61;79.51;100501.75;5014337;28;20041;-75
2022/03/04 06:03:53;;;;;;;25.42;19.50;;;;;;;3.11;77.86;100493.84;5015146;28;20446;-74
2022/03/04 06:06:20;;;;;;;18.27;12.75;;;;;;;3.32;77.02;100506.59;5008251;28;20062;-76
2022/03/04 06:08:45;;;;;;;27.58;18.25;;;;;;;2.85;78.34;100503.38;5008952;28;20432;-77
2022/03/04 06:18:24;;;;;;;22.45;17.17;;;;;;;3.11;77.67;100514.56;5008602;28;20101;-77
2022/03/04 06:21:34;;;;;;;25.20;18.73;;;;;;;3.31;77.09;100518.69;5003483;28;20105;-76
2022/03/04 06:24:00;;;;;;;25.35;17.23;;;;;;;3.20;76.94;100511.41;5004154;28;20041;-77
2022/03/04 06:26:25;;;;;;;27.55;19.00;;;;;;;3.40;76.54;100525.00;4999562;28;20390;-75
2022/03/04 06:28:50;;;;;;;22.23;18.00;;;;;;;2.87;77.48;100525.91;5001172;28;20092;-75
2022/03/04 06:32:11;;;;;;;22.42;14.13;;;;;;;3.70;76.80;100527.59;5013847;28;20041;-77
2022/03/04 06:35:09;;;;;;;28.95;18.52;;;;;;;3.92;76.10;100532.59;5014698;28;20075;-78
2022/03/04 06:38:18;;;;;;;31.23;21.13;;;;;;;4.09;75.06;100540.00;5012244;28;20052;-76
2022/03/04 06:40:46;;;;;;;38.67;18.42;;;;;;;3.97;74.37;100553.50;5012673;28;20042;-82
2022/03/04 06:43:12;;;;;;;16.85;12.52;;;;;;;3.78;74.92;100536.50;5015785;28;20038;-83
2022/03/04 06:45:41;;;;;;;23.98;18.05;;;;;;;4.21;74.08;100556.81;5016195;28;20089;-85
2022/03/04 06:51:56;;;;;;;20.38;16.85;;;;;;;3.67;76.41;100549.16;5002692;28;20048;-84
2022/03/04 06:54:22;;;;;;;21.70;16.60;;;;;;;3.96;75.64;100552.63;5007304;28;20053;-85
2022/03/04 06:56:47;;;;;;;24.80;18.15;;;;;;;3.67;75.63;100556.94;5019286;28;20398;-84
2022/03/04 06:59:42;;;;;;;25.10;18.48;;;;;;;3.47;75.85;100555.47;5017093;28;20382;-84
2022/03/04 07:02:09;;;;;;;22.13;17.58;;;;;;;3.34;76.36;100555.06;5017581;28;20040;-85
2022/03/04 07:15:08;;;;;;;24.58;16.83;;;;;;;4.04;73.47;100567.53;5019992;28;20411;-76
2022/03/04 07:17:33;;;;;;;28.13;18.35;;;;;;;3.74;73.74;100564.06;5003101;28;20181;-75
2022/03/04 07:19:59;;;;;;;23.67;16.77;;;;;;;3.99;73.88;100559.63;5010928;28;20162;-77
2022/03/04 07:22:25;;;;;;;25.05;17.75;;;;;;;4.12;73.66;100560.84;5010195;28;20466;-77
2022/03/04 07:24:50;;;;;;;24.42;18.02;;;;;;;4.26;73.36;100566.41;5010930;28;20053;-78
2022/03/04 07:27:16;;;;;;;21.50;16.90;;;;;;;4.74;72.88;100555.59;5006531;28;20042;-78
2022/03/04 07:29:41;;;;;;;24.02;17.13;;;;;;;4.80;71.85;100567.03;5007208;28;20030;-77
2022/03/04 07:32:56;;;;;;;30.63;18.33;;;;;;;5.00;71.63;100564.94;5010819;28;20033;-79
2022/03/04 07:35:22;;;;;;;33.97;17.40;;;;;;;4.11;72.93;100572.94;5012948;28;20141;-79
2022/03/04 07:37:48;;;;;;;26.38;18.88;;;;;;;4.80;71.74;100577.44;5011935;28;20053;-79
2022/03/04 07:40:15;;;;;;;21.92;17.02;;;;;;;5.03;70.57;100567.63;5013342;28;20068;-79
2022/03/04 07:42:42;;;;;;;21.73;17.70;;;;;;;4.80;70.94;100573.94;4999416;28;20382;-79
2022/03/04 07:45:08;;;;;;;29.75;19.83;;;;;;;5.25;70.93;100561.22;4997241;28;20030;-78
2022/03/04 07:47:35;;;;;;;24.17;18.55;;;;;;;5.45;70.50;100563.41;5004431;28;20034;-79
2022/03/04 07:50:47;;;;;;;37.65;18.67;;;;;;;5.25;70.02;100578.56;4995274;28;20042;-78
2022/03/04 07:53:13;;;;;;;26.95;17.85;;;;;;;4.79;70.88;100580.88;4996556;28;20038;-79
2022/03/04 07:55:38;;;;;;;20.52;16.35;;;;;;;4.74;70.45;100573.81;5009669;28;20103;-79
2022/03/04 07:58:03;;;;;;;21.73;17.05;;;;;;;4.39;71.47;100576.31;5009130;28;20038;-77
2022/03/04 08:01:13;;;;;;;21.15;16.67;;;;;;;3.86;73.30;100584.31;5010670;28;20053;-79
2022/03/04 08:04:25;;;;;;;28.50;20.27;;;;;;;4.88;71.27;100580.22;5002240;28;20117;-79
2022/03/04 08:10:41;;;;;;;28.23;19.00;;;;;;;4.90;71.21;100575.09;5011492;28;20045;-78
2022/03/04 08:13:07;;;;;;;30.63;16.52;;;;;;;5.38;70.03;100587.53;4995022;28;20120;-78
2022/03/04 08:15:32;;;;;;;22.63;17.70;;;;;;;5.12;70.79;100564.34;5011989;28;20494;-78
2022/03/04 08:17:58;;;;;;;24.83;17.73;;;;;;;5.74;69.94;100578.81;5001637;28;20485;-78
2022/03/04 08:23:35;;;;;;;21.05;17.13;;;;;;;6.54;68.11;100582.25;5011979;28;20129;-78
2022/03/04 08:26:03;;;;;;;27.15;18.63;;;;;;;6.51;67.09;100578.72;5003168;28;20033;-79
2022/03/04 08:28:35;;;;;;;30.70;17.65;;;;;;;6.23;66.52;100585.97;5010181;28;20042;-78
2022/03/04 08:31:03;;;;;;;20.15;16.23;;;;;;;5.22;68.61;100586.25;5008625;28;20037;-76
2022/03/04 08:33:29;;;;;;;19.80;15.85;;;;;;;5.57;69.26;100576.72;5010557;28;20053;-79
2022/03/04 08:36:13;;;;;;;20.05;15.23;;;;;;;5.84;69.32;100563.41;5010733;28;20080;-79
2022/03/04 08:38:39;;;;;;;28.52;18.63;;;;;;;6.11;68.31;100573.59;5000837;28;20030;-79
2022/03/04 08:41:05;;;;;;;21.70;16.65;;;;;;;6.28;67.68;100576.53;5011705;28;20466;-79
2022/03/04 08:43:34;;;;;;;49.83;17.45;;;;;;;6.18;68.17;100574.59;5003679;28;20126;-78
2022/03/04 08:49:21;;;;;;;23.52;18.20;;;;;;;5.57;70.36;100568.00;4993881;28;20040;-81
2022/03/04 08:51:47;;;;;;;23.45;16.75;;;;;;;5.78;69.83;100562.41;5014305;28;20041;-79
2022/03/04 08:54:13;;;;;;;21.35;15.57;;;;;;;6.06;68.69;100563.91;4994555;28;20493;-79
2022/03/04 08:56:38;;;;;;;22.38;16.27;;;;;;;6.12;68.91;100577.94;5010810;28;20116;-79
2022/03/04 08:59:04;;;;;;;24.48;13.82;;;;;;;5.61;70.15;100575.91;5010286;28;20048;-79
2022/03/04 09:01:29;;;;;;;20.73;15.25;;;;;;;6.16;68.50;100586.72;5010330;28;20050;-76
2022/03/04 09:03:55;;;;;;;18.33;14.25;;;;;;;5.38;69.59;100572.78;5010294;28;20382;-77
2022/03/04 09:06:21;;;;;;;18.80;15.55;;;;;;;6.08;68.99;100577.84;5006203;28;20018;-74
2022/03/04 09:08:47;;;;;;;18.33;13.70;;;;;;;6.22;68.88;100583.34;5000509;28;20041;-74
2022/03/04 09:11:13;;;;;;;26.52;14.93;;;;;;;5.62;69.20;100580.31;5004119;28;20482;-75
2022/03/04 09:13:38;;;;;;;19.48;15.50;;;;;;;6.29;68.72;100578.28;5004896;28;20065;-77
2022/03/04 09:16:04;;;;;;;16.20;14.38;;;;;;;6.46;67.75;100581.22;5006588;28;20041;-79
2022/03/04 09:18:30;;;;;;;21.30;15.68;;;;;;;6.33;68.74;100587.03;5008691;28;20112;-78
2022/03/04 09:20:55;;;;;;;23.67;16.17;;;;;;;6.52;68.08;100583.94;5009482;28;20417;-75
2022/03/04 09:23:21;;;;;;;18.98;15.35;;;;;;;6.84;67.64;100581.06;5007086;28;20046;-74
2022/03/04 09:25:48;;;;;;;22.42;14.35;;;;;;;6.75;66.81;100589.59;5004896;28;20370;-74
2022/03/04 09:28:15;;;;;;;21.30;14.95;;;;;;;6.51;66.89;100586.53;5002752;28;20579;-74
2022/03/04 09:30:41;;;;;;;23.83;15.73;;;;;;;6.34;68.73;100581.88;5003629;28;20053;-74
2022/03/04 09:33:06;;;;;;;22.85;15.45;;;;;;;5.42;71.78;100581.56;5009560;28;20366;-75
2022/03/04 09:35:32;;;;;;;19.45;16.67;;;;;;;5.36;72.54;100574.50;5007255;28;20034;-75
2022/03/04 09:37:57;;;;;;;23.38;17.23;;;;;;;5.54;72.37;100571.41;5006443;28;20054;-75
2022/03/04 09:40:23;;;;;;;26.00;18.33;;;;;;;5.82;71.64;100577.25;5009039;28;20042;-74
2022/03/04 09:42:49;;;;;;;20.83;17.17;;;;;;;6.15;70.79;100573.63;5009940;28;20106;-74
2022/03/04 09:45:14;;;;;;;23.90;18.05;;;;;;;6.15;70.05;100578.84;5006801;28;20038;-74
2022/03/04 09:47:40;;;;;;;24.92;17.92;;;;;;;6.35;69.12;100572.31;5009358;28;20038;-74
2022/03/04 09:50:07;;;;;;;21.70;17.00;;;;;;;6.52;69.09;100573.50;5009201;28;20478;-74
2022/03/04 09:52:32;;;;;;;21.08;17.38;;;;;;;6.52;67.88;100563.09;5008179;28;20099;-73
2022/03/04 09:54:58;;;;;;;19.08;16.13;;;;;;;6.40;69.18;100578.50;4999571;28;20033;-76
2022/03/04 09:57:24;;;;;;;24.65;18.40;;;;;;;6.70;67.97;100582.53;5009114;28;20077;-75
2022/03/04 10:04:04;;;;;;;23.83;18.52;;;;;;;6.49;69.38;100572.59;5008778;28;20052;-75
2022/03/04 10:07:09;;;;;;;31.17;16.48;;;;;;;6.82;66.98;100572.31;5002876;28;20042;-76
2022/03/04 10:23:08;;;;;;;22.02;17.27;;;;;;;5.76;69.30;100553.66;5008247;28;20076;-73
2022/03/04 10:25:33;;;;;;;20.70;17.42;;;;;;;6.75;67.06;100545.25;5009846;28;20042;-75
2022/03/04 10:28:07;;;;;;;25.60;18.25;;;;;;;6.93;65.68;100549.91;5010051;28;20042;-74
2022/03/04 10:30:34;;;;;;;26.92;17.23;;;;;;;6.41;65.57;100542.88;5009805;28;20498;-75
2022/03/04 10:33:07;;;;;;;25.35;19.67;;;;;;;6.13;67.50;100548.44;5007393;28;20030;-74
2022/03/04 10:48:52;;;;;;;20.90;17.55;;;;;;;7.73;61.87;100547.66;5012245;28;20049;-75
2022/03/04 10:51:33;;;;;;;38.60;19.00;;;;;;;7.88;62.39;100544.34;5002775;28;20091;-75
2022/03/04 10:54:21;;;;;;;25.52;16.70;;;;;;;7.90;61.80;100530.44;5012191;28;20092;-75
2022/03/04 10:56:55;;;;;;;20.77;16.63;;;;;;;7.97;61.33;100526.19;4995814;28;20049;-75
2022/03/04 10:59:23;;;;;;;24.00;20.63;;;;;;;6.45;62.11;100531.66;5002219;28;20038;-74
2022/03/04 11:01:50;;;;;;;26.10;17.98;;;;;;;6.92;63.66;100529.00;5010552;28;20198;-74
2022/03/04 11:04:18;;;;;;;33.10;19.25;;;;;;;7.20;61.92;100527.72;5011682;28;20483;-74
2022/03/04 11:06:47;;;;;;;26.17;16.27;;;;;;;7.15;62.21;100524.16;5009933;28;20052;-74
2022/03/04 11:09:17;;;;;;;22.25;17.42;;;;;;;7.03;62.09;100534.41;5010410;28;20100;-74
2022/03/04 11:11:44;;;;;;;20.90;18.00;;;;;;;7.33;62.41;100534.91;5010775;28;20084;-74
2022/03/04 11:14:13;;;;;;;26.15;19.95;;;;;;;7.21;63.76;100510.31;5012121;28;20045;-75
2022/03/04 11:16:40;;;;;;;24.17;18.25;;;;;;;6.84;62.85;100520.19;5011269;28;20066;-76
2022/03/04 11:19:07;;;;;;;20.30;18.13;;;;;;;7.08;63.31;100514.50;5017687;28;20042;-74
2022/03/04 11:21:33;;;;;;;18.95;15.80;;;;;;;6.29;63.88;100504.44;5009910;28;20038;-75
2022/03/04 11:23:59;;;;;;;21.48;18.45;;;;;;;6.96;65.01;100499.53;5012456;28;20060;-76
2022/03/04 11:26:29;;;;;;;54.35;21.88;;;;;;;7.57;61.62;100503.03;5007772;28;20473;-75
2022/03/04 11:28:56;;;;;;;21.83;17.50;;;;;;;7.41;60.88;100508.91;5010087;28;20046;-74
2022/03/04 11:31:25;;;;;;;19.52;16.25;;;;;;;6.59;61.30;100492.81;5011764;28;20050;-82
2022/03/04 11:33:52;;;;;;;27.00;17.95;;;;;;;6.96;61.02;100507.34;5010830;28;20050;-83
2022/03/04 11:36:18;;;;;;;23.35;15.73;;;;;;;7.07;62.40;100499.69;5012172;28;20065;-82
2022/03/04 11:38:46;;;;;;;19.50;17.08;;;;;;;7.24;61.41;100505.19;5013032;28;20104;-77
2022/03/04 11:41:37;;;;;;;19.23;16.38;;;;;;;7.79;60.66;100501.56;5010542;28;20129;-74
2022/03/04 11:44:21;;;;;;;20.10;16.25;;;;;;;8.14;60.70;100501.13;5002686;28;20054;-74
2022/03/04 11:46:55;;;;;;;;;;;;;;;7.99;60.58;100500.97;5010765;28;20033;-74
2022/03/04 11:49:43;;;;;;;26.20;17.52;;;;;;;7.53;61.00;100500.34;4997088;28;19913;-74
2022/03/04 11:52:12;;;;;;;21.42;17.52;;;;;;;7.50;59.23;100502.94;5008446;28;20050;-74
2022/03/04 11:54:44;;;;;;;20.52;17.25;;;;;;;7.73;59.80;100498.03;4999505;28;20065;-73
2022/03/04 11:57:27;;;;;;;19.42;15.95;;;;;;;8.33;59.11;100488.25;5005835;28;20038;-72
2022/03/04 12:00:11;;;;;;;18.27;14.13;;;;;;;7.80;62.46;100494.63;4997921;28;20065;-74
2022/03/04 12:02:48;;;;;;;21.45;14.85;;;;;;;7.77;63.20;100481.50;5006138;28;20839;-75
2022/03/04 12:05:14;;;;;;;20.88;15.40;;;;;;;8.23;59.69;100495.13;5009348;28;20096;-75
2022/03/04 12:07:41;;;;;;;19.83;15.02;;;;;;;8.15;60.37;100499.41;5010248;28;20053;-74
2022/03/04 12:10:10;;;;;;;16.60;14.90;;;;;;;8.10;60.22;100498.44;5009635;28;20042;-74
2022/03/04 12:12:36;;;;;;;20.35;17.52;;;;;;;8.18;57.73;100496.81;5003294;28;20041;-74
2022/03/04 12:15:16;;;;;;;21.88;16.88;;;;;;;8.41;58.43;100484.91;5009296;28;20084;-72
2022/03/04 12:18:02;;;;;;;18.05;14.10;;;;;;;8.30;59.51;100486.47;4994599;28;20518;-74
2022/03/04 12:20:51;;;;;;;24.00;16.63;;;;;;;7.37;59.74;100501.88;5007959;28;20030;-73
2022/03/04 12:23:30;;;;;;;28.08;15.40;;;;;;;8.00;60.63;100484.41;5010304;28;20104;-74
2022/03/04 12:25:58;;;;;;;21.20;17.00;;;;;;;7.00;61.63;100488.28;4995274;28;20042;-74
2022/03/04 12:28:39;;;;;;;20.38;16.30;;;;;;;8.13;59.98;100490.66;5009133;28;20041;-74
2022/03/04 12:41:18;;;;;;;19.77;15.63;;;;;;;8.19;59.07;100472.41;5008805;28;20048;-73
2022/03/04 12:43:48;;;;;;;17.45;15.13;;;;;;;8.13;58.46;100477.59;5006051;28;20050;-74
2022/03/04 12:46:19;;;;;;;17.67;15.27;;;;;;;8.40;58.17;100482.25;5006040;28;20049;-74
2022/03/04 12:49:38;;;;;;;29.35;15.50;;;;;;;7.91;60.79;100471.22;5009157;28;20112;-75
2022/03/04 12:52:03;;;;;;;24.73;17.13;;;;;;;7.52;59.84;100475.13;5012869;28;20030;-74
2022/03/04 12:54:31;;;;;;;19.80;15.82;;;;;;;7.10;60.28;100471.03;5043079;28;20085;-74
2022/03/04 12:57:01;;;;;;;21.45;16.15;;;;;;;7.94;59.57;100473.91;5009081;28;20033;-74
2022/03/04 12:59:28;;;;;;;21.15;17.05;;;;;;;7.15;61.41;100464.16;5002836;28;20478;-74
2022/03/04 13:01:55;;;;;;;21.27;16.80;;;;;;;7.88;59.17;100473.81;5010260;28;20089;-74
2022/03/04 13:04:22;;;;;;;27.45;15.40;;;;;;;7.79;59.95;100475.44;5010311;28;20052;-74
2022/03/04 13:07:00;;;;;;;25.05;16.10;;;;;;;8.49;59.21;100466.66;5009939;28;20034;-75
2022/03/04 13:09:26;;;;;;;25.83;16.10;;;;;;;8.93;57.09;100458.31;5006657;28;20050;-73
2022/03/04 13:11:54;;;;;;;21.85;15.70;;;;;;;7.29;59.50;100473.06;5010132;28;20033;-74
2022/03/04 13:14:22;;;;;;;21.75;17.50;;;;;;;7.60;60.03;100476.09;5011226;28;20046;-75
2022/03/04 13:16:56;;;;;;;26.58;15.35;;;;;;;7.39;59.39;100467.09;5001058;28;20062;-73
2022/03/04 13:19:24;;;;;;;19.17;16.05;;;;;;;7.22;60.05;100470.34;5001043;28;20045;-73
2022/03/04 13:21:57;;;;;;;24.40;19.13;;;;;;;7.46;59.24;100472.41;5002142;28;20100;-74
2022/03/04 13:24:42;;;;;;;25.95;18.08;;;;;;;7.16;59.72;100472.03;5000085;28;20109;-74
2022/03/04 13:27:13;;;;;;;18.15;16.10;;;;;;;7.86;59.46;100460.72;5007598;28;20057;-70
2022/03/04 13:29:39;;;;;;;26.65;18.55;;;;;;;7.79;60.16;100466.75;5000849;28;20056;-74
2022/03/04 13:32:13;;;;;;;25.33;18.42;;;;;;;8.32;58.20;100458.63;5005067;28;20100;-74
2022/03/04 13:34:41;;;;;;;18.80;15.75;;;;;;;7.80;59.15;100468.50;5009570;28;20042;-72